Scyrene, Alabama
Current Conditions -  °F | °C
As of 7:53 AM on Monday 24 Nov 2014 (Local Time) from KGZH Reporting Station
Broken Clouds Broken Clouds  
Wind Chill: 69°   Ceiling: 1000
Heat Index: 69°   Visibility: 7mi
Dew Point: 65°   Wind: 5mph
Humidity: 87%   Direction: 240°WSW
Pressure: 29.83"   Gusts: NA
Location:  31.7194°N, 87.6559°W
Report Text: KGZH 241353Z AUTO 24004KT 7SM BKN010 21/18 A2983 RMK AO2 SLP099 T02060183
Loading
Personal Weather Stations






























Interactive Weather Map New forecast layout! Learn more

10-Day Weather Forecast

Advertisements
Track Severe Weather on mobile